createdAt,value
2023-05-17T00:01:21.744Z,4.00
2023-05-17T00:05:15.196Z,2.90
2023-05-17T00:09:06.981Z,4.00
2023-05-17T00:13:06.332Z,5.20
2023-05-17T00:17:02.150Z,5.30
2023-05-17T00:21:01.462Z,5.30
2023-05-17T00:24:57.027Z,3.40
2023-05-17T00:28:56.424Z,6.50
2023-05-17T00:32:52.097Z,4.50
2023-05-17T00:36:51.414Z,5.70
2023-05-17T00:40:38.374Z,5.10
2023-05-17T00:44:23.323Z,6.90
2023-05-17T00:48:08.615Z,5.40
2023-05-17T00:51:54.082Z,6.10
2023-05-17T00:55:39.182Z,4.60
2023-05-17T00:59:24.295Z,4.80
2023-05-17T01:03:09.620Z,6.70
2023-05-17T01:07:02.829Z,5.20
2023-05-17T01:11:01.764Z,5.70
2023-05-17T01:14:56.865Z,7.00
2023-05-17T01:18:56.282Z,5.90
2023-05-17T01:22:51.924Z,7.50
2023-05-17T01:26:51.109Z,5.30
2023-05-17T01:30:47.044Z,7.70
2023-05-17T01:34:47.055Z,4.00
2023-05-17T01:38:43.577Z,5.30
2023-05-17T01:42:43.825Z,6.20
2023-05-17T01:46:41.780Z,6.30
2023-05-17T01:50:41.863Z,5.50
2023-05-17T01:54:40.396Z,5.60
2023-05-17T01:58:39.984Z,8.90
2023-05-17T02:02:36.691Z,7.40
2023-05-17T02:06:36.919Z,8.60
2023-05-17T02:10:33.344Z,8.20
2023-05-17T02:14:32.890Z,6.70
2023-05-17T02:18:29.660Z,6.20
2023-05-17T02:22:31.068Z,6.10
2023-05-17T02:26:27.626Z,5.60
2023-05-17T02:30:28.921Z,6.30
2023-05-17T02:34:27.177Z,8.70
2023-05-17T02:38:26.976Z,7.00
2023-05-17T02:42:24.130Z,8.70
2023-05-17T02:46:23.946Z,6.30
2023-05-17T02:50:21.160Z,6.60
2023-05-17T02:54:21.053Z,10.10
2023-05-17T02:58:19.393Z,8.80
2023-05-17T03:02:19.162Z,9.30
2023-05-17T03:06:17.076Z,7.20
2023-05-17T03:10:16.313Z,10.10
2023-05-17T03:14:15.350Z,7.90
2023-05-17T03:18:14.729Z,7.50
2023-05-17T03:22:13.279Z,8.80
2023-05-17T03:26:12.917Z,9.90
2023-05-17T03:30:16.299Z,8.40
2023-05-17T03:34:16.999Z,8.90
2023-05-17T03:38:14.505Z,9.30
2023-05-17T03:42:14.139Z,9.90
2023-05-17T03:46:12.042Z,10.70
2023-05-17T03:50:12.188Z,10.50
2023-05-17T03:54:09.905Z,11.60
2023-05-17T03:58:09.172Z,14.00
2023-05-17T04:02:06.890Z,15.60
2023-05-17T04:06:08.221Z,16.00
2023-05-17T04:10:06.652Z,16.30
2023-05-17T04:14:06.132Z,13.70
2023-05-17T04:18:04.234Z,11.90
2023-05-17T04:22:04.174Z,12.90
2023-05-17T04:26:01.971Z,11.40
2023-05-17T04:30:02.343Z,10.20
2023-05-17T04:34:00.336Z,13.60
2023-05-17T04:38:00.052Z,11.00
2023-05-17T04:41:56.633Z,8.50
2023-05-17T04:45:57.233Z,9.50
2023-05-17T04:49:54.994Z,7.40
2023-05-17T04:53:55.140Z,8.30
2023-05-17T04:57:52.029Z,6.70
2023-05-17T05:01:52.262Z,15.90
2023-05-17T05:05:48.829Z,7.50
2023-05-17T05:09:48.091Z,7.70
2023-05-17T05:13:46.168Z,7.10
2023-05-17T05:17:46.437Z,8.90
2023-05-17T05:21:43.929Z,10.30
2023-05-17T05:25:44.300Z,10.30
2023-05-17T05:29:42.241Z,11.40
2023-05-17T05:33:29.245Z,9.70
2023-05-17T05:37:16.201Z,13.10
2023-05-17T05:41:03.293Z,11.30
2023-05-17T05:44:48.614Z,15.80
2023-05-17T05:48:34.613Z,12.00
2023-05-17T05:52:19.871Z,7.50
2023-05-17T05:56:05.412Z,6.80
2023-05-17T05:59:50.240Z,10.60
2023-05-17T06:03:35.281Z,10.40
2023-05-17T06:07:26.868Z,5.70
2023-05-17T06:11:18.533Z,8.30
2023-05-17T06:15:20.878Z,7.70
2023-05-17T06:19:20.380Z,10.20
2023-05-17T06:23:18.128Z,10.30
2023-05-17T06:27:17.402Z,10.10
2023-05-17T06:31:12.466Z,9.70
2023-05-17T06:35:11.480Z,8.80
2023-05-17T06:39:06.723Z,7.00
2023-05-17T06:43:06.369Z,5.70
2023-05-17T06:47:01.892Z,5.70
2023-05-17T06:50:47.061Z,12.10
2023-05-17T06:54:32.050Z,12.00
2023-05-17T06:58:17.184Z,5.10
2023-05-17T07:02:02.441Z,6.50
2023-05-17T07:05:59.778Z,8.10
2023-05-17T07:10:01.348Z,6.00
2023-05-17T07:13:59.501Z,7.90
2023-05-17T07:18:01.343Z,7.10
2023-05-17T07:21:59.598Z,6.80
2023-05-17T07:25:58.946Z,5.00
2023-05-17T07:29:57.449Z,5.30
2023-05-17T07:33:56.708Z,6.80
2023-05-17T07:37:55.417Z,7.60
2023-05-17T07:41:57.182Z,8.50
2023-05-17T07:45:54.759Z,10.00
2023-05-17T07:49:56.322Z,8.00
2023-05-17T07:53:51.589Z,9.60
2023-05-17T07:57:51.624Z,7.80
2023-05-17T08:01:50.769Z,11.40
2023-05-17T08:05:49.381Z,8.10
2023-05-17T08:09:54.495Z,11.00
2023-05-17T08:13:49.634Z,7.90
2023-05-17T08:17:51.553Z,10.70
2023-05-17T08:21:46.640Z,7.40
2023-05-17T08:25:48.412Z,7.40
2023-05-17T08:29:47.501Z,11.30
2023-05-17T08:33:47.243Z,10.00
2023-05-17T08:37:44.856Z,12.70
2023-05-17T08:41:38.460Z,10.80
2023-05-17T08:45:33.836Z,7.40
2023-05-17T08:49:27.517Z,8.80
2023-05-17T08:53:23.800Z,8.00
2023-05-17T08:57:17.506Z,8.50
2023-05-17T09:01:12.791Z,11.70
2023-05-17T09:05:12.358Z,10.70
2023-05-17T09:09:07.657Z,7.70
2023-05-17T09:13:07.202Z,10.60
2023-05-17T09:16:58.803Z,8.50
2023-05-17T09:20:57.886Z,11.10
2023-05-17T09:24:49.739Z,11.90
2023-05-17T09:28:48.995Z,7.30
2023-05-17T09:32:44.752Z,9.80
2023-05-17T09:36:43.932Z,8.50
2023-05-17T09:40:39.695Z,8.30
2023-05-17T09:44:38.583Z,9.70
2023-05-17T09:48:34.603Z,6.20
2023-05-17T09:52:33.809Z,8.50
2023-05-17T09:56:28.952Z,5.50
2023-05-17T10:00:26.167Z,10.10
2023-05-17T10:04:21.810Z,9.30
2023-05-17T10:08:21.372Z,6.50
2023-05-17T10:12:16.916Z,8.80
2023-05-17T10:16:16.259Z,8.10
2023-05-17T10:20:12.124Z,9.90
2023-05-17T10:24:11.578Z,11.00
2023-05-17T10:28:07.057Z,7.60
2023-05-17T10:32:06.470Z,5.70
2023-05-17T10:35:59.488Z,6.10
2023-05-17T10:39:59.046Z,9.50
2023-05-17T10:43:54.738Z,4.60
2023-05-17T10:47:54.108Z,5.20
2023-05-17T10:51:49.719Z,6.60
2023-05-17T10:55:48.965Z,5.30
2023-05-17T10:59:44.993Z,4.90
2023-05-17T11:03:44.841Z,8.80
2023-05-17T11:07:44.771Z,6.40
2023-05-17T11:11:46.397Z,8.20
2023-05-17T11:15:44.982Z,7.40
2023-05-17T11:19:46.635Z,4.60
2023-05-17T11:23:44.815Z,6.50
2023-05-17T11:27:46.311Z,7.90
2023-05-17T11:31:43.861Z,6.40
2023-05-17T11:35:45.362Z,4.50
2023-05-17T11:39:43.825Z,5.00
2023-05-17T11:43:45.978Z,5.30
2023-05-17T11:47:43.897Z,5.20
2023-05-17T11:51:44.983Z,6.90
2023-05-17T11:55:42.786Z,4.60
2023-05-17T11:59:44.529Z,7.50
2023-05-17T12:03:42.926Z,3.60
2023-05-17T12:07:44.387Z,5.00
2023-05-17T12:11:42.957Z,4.10
2023-05-17T12:15:44.500Z,3.80
2023-05-17T12:19:42.984Z,2.50
2023-05-17T12:23:44.379Z,5.20
2023-05-17T12:27:41.938Z,5.00
2023-05-17T12:31:42.893Z,4.00
2023-05-17T12:35:40.954Z,2.90
2023-05-17T12:39:42.717Z,2.60
2023-05-17T12:43:40.852Z,6.10
2023-05-17T12:47:42.757Z,3.10
2023-05-17T12:51:40.971Z,4.00
2023-05-17T12:55:42.452Z,3.70
2023-05-17T12:59:41.048Z,3.90
2023-05-17T13:03:42.293Z,4.10
2023-05-17T13:07:41.069Z,2.70
2023-05-17T13:11:43.017Z,7.30
2023-05-17T13:15:41.014Z,3.10
2023-05-17T13:19:42.745Z,4.20
2023-05-17T13:23:41.129Z,2.30
2023-05-17T13:27:42.471Z,3.10
2023-05-17T13:31:41.026Z,3.30
2023-05-17T13:35:42.617Z,2.00
2023-05-17T13:39:40.875Z,2.60
2023-05-17T13:43:42.693Z,3.70
2023-05-17T13:47:35.980Z,3.10
2023-05-17T13:51:37.756Z,3.50
2023-05-17T13:55:31.060Z,6.60
2023-05-17T13:59:32.770Z,4.10
2023-05-17T14:03:31.282Z,3.40
2023-05-17T14:07:32.631Z,4.80
2023-05-17T14:11:31.314Z,4.50
2023-05-17T14:15:32.723Z,4.30
2023-05-17T14:19:31.162Z,3.70
2023-05-17T14:23:32.697Z,2.80
2023-05-17T14:27:31.614Z,4.00
2023-05-17T14:31:33.657Z,2.20
2023-05-17T14:35:32.140Z,2.80
2023-05-17T14:39:31.775Z,5.90
2023-05-17T14:43:29.257Z,4.30
2023-05-17T14:47:28.791Z,3.30
2023-05-17T14:51:26.509Z,5.30
2023-05-17T14:55:26.840Z,3.70
2023-05-17T14:59:24.528Z,6.20
2023-05-17T15:03:24.724Z,5.30
2023-05-17T15:07:28.644Z,5.20
2023-05-17T15:11:28.307Z,3.70
2023-05-17T15:15:29.333Z,3.50
2023-05-17T15:19:28.456Z,3.90
2023-05-17T15:23:30.210Z,6.40
2023-05-17T15:27:29.366Z,3.70
2023-05-17T15:31:30.848Z,6.00
2023-05-17T15:35:29.604Z,5.90
2023-05-17T15:39:31.288Z,6.90
2023-05-17T15:43:29.319Z,3.30
2023-05-17T15:47:42.356Z,5.80
2023-05-17T15:51:41.311Z,7.20
2023-05-17T15:55:42.837Z,5.00
2023-05-17T15:59:41.256Z,7.40
2023-05-17T16:03:39.298Z,4.50
2023-05-17T16:07:41.045Z,8.40
2023-05-17T16:11:39.483Z,5.10
2023-05-17T16:15:40.424Z,5.80
2023-05-17T16:19:38.483Z,5.20
2023-05-17T16:23:39.952Z,7.60
2023-05-17T16:27:38.329Z,6.40
2023-05-17T16:31:39.990Z,9.60
2023-05-17T16:35:38.360Z,6.70
2023-05-17T16:39:39.952Z,6.90
2023-05-17T16:43:39.925Z,4.70
2023-05-17T16:47:42.057Z,5.10
2023-05-17T16:51:41.918Z,5.90
2023-05-17T16:55:43.462Z,5.50
2023-05-17T16:59:40.438Z,8.60
2023-05-17T17:03:40.629Z,5.90
2023-05-17T17:07:37.789Z,4.90
2023-05-17T17:11:33.648Z,6.40
2023-05-17T17:15:29.593Z,3.00
2023-05-17T17:19:27.294Z,6.30
2023-05-17T17:23:24.664Z,5.00
2023-05-17T17:27:23.725Z,4.00
2023-05-17T17:31:19.536Z,5.60
2023-05-17T17:35:18.565Z,7.40
2023-05-17T17:39:13.574Z,8.30
2023-05-17T17:43:12.854Z,6.90
2023-05-17T17:47:08.875Z,4.70
2023-05-17T17:51:04.681Z,7.80
2023-05-17T17:55:03.757Z,4.90
2023-05-17T17:58:59.887Z,5.40
2023-05-17T18:02:59.440Z,13.00
2023-05-17T18:06:54.993Z,8.50
2023-05-17T18:10:50.620Z,5.30
2023-05-17T18:14:45.842Z,8.30
2023-05-17T18:18:41.529Z,7.10
2023-05-17T18:22:38.779Z,6.00
2023-05-17T18:26:35.785Z,17.60
2023-05-17T18:30:35.397Z,6.70
2023-05-17T18:34:30.707Z,8.70
2023-05-17T18:38:29.722Z,10.50
2023-05-17T18:42:28.689Z,14.60
2023-05-17T18:46:23.796Z,18.90
2023-05-17T18:50:22.875Z,26.30
2023-05-17T18:54:18.871Z,19.80
2023-05-17T18:58:15.282Z,21.70
2023-05-17T19:02:14.308Z,21.80
2023-05-17T19:06:09.643Z,14.20
2023-05-17T19:10:09.022Z,20.10
2023-05-17T19:14:08.268Z,16.70
2023-05-17T19:18:09.241Z,14.10
2023-05-17T19:22:04.729Z,8.80
2023-05-17T19:26:04.652Z,12.30
2023-05-17T19:29:59.892Z,11.70
2023-05-17T19:34:03.233Z,10.40
2023-05-17T19:37:58.896Z,16.00
2023-05-17T19:41:58.049Z,9.80
2023-05-17T19:45:54.198Z,11.10
2023-05-17T19:49:53.436Z,13.20
2023-05-17T19:53:54.382Z,9.90
2023-05-17T19:57:50.962Z,14.30
2023-05-17T20:01:53.380Z,16.20
2023-05-17T20:05:49.266Z,10.20
2023-05-17T20:09:53.381Z,17.10
2023-05-17T20:13:49.465Z,11.10
2023-05-17T20:17:50.900Z,13.70
2023-05-17T20:21:50.436Z,27.50
2023-05-17T20:25:55.431Z,29.10
2023-05-17T20:29:51.023Z,17.50
2023-05-17T20:33:48.222Z,11.30
2023-05-17T20:37:47.679Z,22.90
2023-05-17T20:41:46.948Z,58.60
2023-05-17T20:45:42.009Z,140.60
2023-05-17T20:49:41.515Z,174.90
2023-05-17T20:53:37.032Z,56.40
2023-05-17T20:57:34.105Z,18.40
2023-05-17T21:01:27.477Z,10.10
2023-05-17T21:05:30.590Z,55.40
2023-05-17T21:09:25.937Z,99.20
2023-05-17T21:13:25.055Z,86.30
2023-05-17T21:17:21.112Z,28.10
2023-05-17T21:21:20.689Z,24.90
2023-05-17T21:25:16.330Z,23.40
2023-05-17T21:29:13.322Z,17.40
2023-05-17T21:33:13.678Z,18.00
2023-05-17T21:37:13.041Z,10.60
2023-05-17T21:41:10.065Z,12.50
2023-05-17T21:45:06.220Z,13.60
2023-05-17T21:49:06.366Z,33.80
2023-05-17T21:53:05.545Z,28.10
2023-05-17T21:56:58.484Z,24.70
2023-05-17T22:01:01.785Z,11.10
2023-05-17T22:04:57.310Z,14.70
2023-05-17T22:08:56.958Z,11.80
2023-05-17T22:12:52.131Z,6.90
2023-05-17T22:16:51.192Z,17.70
2023-05-17T22:20:47.373Z,36.30
2023-05-17T22:24:44.577Z,22.10
2023-05-17T22:28:44.674Z,15.30
2023-05-17T22:32:43.522Z,12.30
2023-05-17T22:36:39.155Z,14.10
2023-05-17T22:40:38.628Z,11.90
2023-05-17T22:44:34.247Z,14.20
2023-05-17T22:48:33.352Z,24.90
2023-05-17T22:52:26.538Z,19.60
2023-05-17T22:56:29.704Z,9.80
2023-05-17T23:00:25.471Z,11.90
2023-05-17T23:04:21.278Z,45.40
2023-05-17T23:08:20.248Z,20.70
2023-05-17T23:12:22.006Z,10.00
2023-05-17T23:16:17.194Z,7.90
2023-05-17T23:20:06.359Z,8.00
2023-05-17T23:23:55.019Z,11.20
2023-05-17T23:27:41.497Z,15.90
2023-05-17T23:31:30.461Z,14.10
2023-05-17T23:35:15.428Z,10.70
2023-05-17T23:39:00.625Z,8.90
2023-05-17T23:42:45.869Z,11.40
2023-05-17T23:46:30.827Z,18.10
2023-05-17T23:50:16.019Z,11.50
2023-05-17T23:54:01.144Z,12.60
2023-05-17T23:57:46.420Z,8.60
